Mendocino, California
Current Conditions -  °F | °C
As of 11:56 AM on Monday 24 Nov 2014 (Local Time) from KUKI Reporting Station
Clear Clear  
Wind Chill: 58°   Ceiling: Unl
Heat Index: 58°   Visibility: 10mi
Dew Point: 38°   Wind: 0mph
Humidity: 47%   Direction: NA
Pressure: 30.4"   Gusts: NA
Location:  39.31°N, 123.8°W
Report Text: KUKI 241956Z AUTO 00000KT 10SM CLR 14/03 A3040 RMK AO2 SLP292 T01440033
Loading
Personal Weather Stations






























Interactive Weather Map New forecast layout! Learn more

10-Day Weather Forecast

Advertisements
Track Severe Weather on mobile